METAR Data
IDs: Format: Raw Decoded Include TAF

Data at: 0111 UTC 25 Mar 2019

METAR for:EKRN (Ronne/Bornholm Arpt, --, DN)
Text:EKRN 250050Z AUTO 26011KT 9999 OVC062/// 05/03 Q1012
Temperature: 5.0°C ( 41°F)
Dewpoint: 3.0°C ( 37°F) [RH = 87%]
Pressure (altimeter):29.88 inches Hg (1012.0 mb)
Winds:from the W (260 degrees) at 13 MPH (11 knots; 5.7 m/s)
Visibility:6 or more sm (10+ km)
Ceiling:6200 feet AGL
Clouds: overcast cloud deck at 6200 feet AGL
Text:EKRN 250020Z AUTO 26011KT 9999 OVC063/// 05/03 Q1012
Temperature: 5.0°C ( 41°F)
Dewpoint: 3.0°C ( 37°F) [RH = 87%]
Pressure (altimeter):29.88 inches Hg (1012.0 mb)
Winds:from the W (260 degrees) at 13 MPH (11 knots; 5.7 m/s)
Visibility:6 or more sm (10+ km)
Ceiling:6300 feet AGL
Clouds: overcast cloud deck at 6300 feet AGL
Text:EKRN 242350Z AUTO 25012KT 9999 OVC064/// 05/03 Q1013
Temperature: 5.0°C ( 41°F)
Dewpoint: 3.0°C ( 37°F) [RH = 87%]
Pressure (altimeter):29.91 inches Hg (1013.0 mb)
Winds:from the WSW (250 degrees) at 14 MPH (12 knots; 6.2 m/s)
Visibility:6 or more sm (10+ km)
Ceiling:6400 feet AGL
Clouds: overcast cloud deck at 6400 feet AGL
Text:EKRN 242320Z AUTO 26013KT 9999 BKN063/// 05/03 Q1013
Temperature: 5.0°C ( 41°F)
Dewpoint: 3.0°C ( 37°F) [RH = 87%]
Pressure (altimeter):29.91 inches Hg (1013.0 mb)
Winds:from the W (260 degrees) at 15 MPH (13 knots; 6.7 m/s)
Visibility:6 or more sm (10+ km)
Ceiling:6300 feet AGL
Clouds: broken clouds at 6300 feet AGL
Text:EKRN 242250Z AUTO 26013KT 9999 FEW061/// BKN140/// 05/03 Q1014
Temperature: 5.0°C ( 41°F)
Dewpoint: 3.0°C ( 37°F) [RH = 87%]
Pressure (altimeter):29.94 inches Hg (1014.0 mb)
Winds:from the W (260 degrees) at 15 MPH (13 knots; 6.7 m/s)
Visibility:6 or more sm (10+ km)
Ceiling:14000 feet AGL
Clouds: few clouds at 6100 feet AGL, broken clouds at 14000 feet AGL
Text:EKRN 242220Z AUTO 26011KT 9999 BKN060/// 05/02 Q1014
Temperature: 5.0°C ( 41°F)
Dewpoint: 2.0°C ( 36°F) [RH = 81%]
Pressure (altimeter):29.94 inches Hg (1014.0 mb)
Winds:from the W (260 degrees) at 13 MPH (11 knots; 5.7 m/s)
Visibility:6 or more sm (10+ km)
Ceiling:6000 feet AGL
Clouds: broken clouds at 6000 feet AGL
Text:EKRN 242150Z AUTO 26014KT 9999 OVC066/// 05/02 Q1015
Temperature: 5.0°C ( 41°F)
Dewpoint: 2.0°C ( 36°F) [RH = 81%]
Pressure (altimeter):29.97 inches Hg (1015.0 mb)
Winds:from the W (260 degrees) at 16 MPH (14 knots; 7.2 m/s)
Visibility:6 or more sm (10+ km)
Ceiling:6600 feet AGL
Clouds: overcast cloud deck at 6600 feet AGL
Text:EKRN 242120Z AUTO 26015KT 9999 BKN059/// 05/03 Q1015
Temperature: 5.0°C ( 41°F)
Dewpoint: 3.0°C ( 37°F) [RH = 87%]
Pressure (altimeter):29.97 inches Hg (1015.0 mb)
Winds:from the W (260 degrees) at 17 MPH (15 knots; 7.7 m/s)
Visibility:6 or more sm (10+ km)
Ceiling:5900 feet AGL
Clouds: broken clouds at 5900 feet AGL
Text:EKRN 242050Z AUTO 26014KT 9999 FEW064/// SCT130/// 05/03 Q1016
Temperature: 5.0°C ( 41°F)
Dewpoint: 3.0°C ( 37°F) [RH = 87%]
Pressure (altimeter):30.00 inches Hg (1016.0 mb)
Winds:from the W (260 degrees) at 16 MPH (14 knots; 7.2 m/s)
Visibility:6 or more sm (10+ km)
Ceiling:at least 12,000 feet AGL
Clouds: few clouds at 6400 feet AGL, scattered clouds at 13000 feet AGL
Text:EKRN 242020Z AUTO 25012KT 9999 BKN130/// 04/03 Q1016
Temperature: 4.0°C ( 39°F)
Dewpoint: 3.0°C ( 37°F) [RH = 93%]
Pressure (altimeter):30.00 inches Hg (1016.0 mb)
Winds:from the WSW (250 degrees) at 14 MPH (12 knots; 6.2 m/s)
Visibility:6 or more sm (10+ km)
Ceiling:13000 feet AGL
Clouds: broken clouds at 13000 feet AGL
Text:EKRN 241950Z AUTO 26013KT 9999 BKN140/// 04/03 Q1017
Temperature: 4.0°C ( 39°F)
Dewpoint: 3.0°C ( 37°F) [RH = 93%]
Pressure (altimeter):30.03 inches Hg (1017.0 mb)
Winds:from the W (260 degrees) at 15 MPH (13 knots; 6.7 m/s)
Visibility:6 or more sm (10+ km)
Ceiling:14000 feet AGL
Clouds: broken clouds at 14000 feet AGL
Text:EKRN 241920Z AUTO 26015KT 9999 BKN140/// 04/03 Q1017
Temperature: 4.0°C ( 39°F)
Dewpoint: 3.0°C ( 37°F) [RH = 93%]
Pressure (altimeter):30.03 inches Hg (1017.0 mb)
Winds:from the W (260 degrees) at 17 MPH (15 knots; 7.7 m/s)
Visibility:6 or more sm (10+ km)
Ceiling:14000 feet AGL
Clouds: broken clouds at 14000 feet AGL
Text:EKRN 241850Z AUTO 25012KT 9999 BKN140/// 04/03 Q1017
Temperature: 4.0°C ( 39°F)
Dewpoint: 3.0°C ( 37°F) [RH = 93%]
Pressure (altimeter):30.03 inches Hg (1017.0 mb)
Winds:from the WSW (250 degrees) at 14 MPH (12 knots; 6.2 m/s)
Visibility:6 or more sm (10+ km)
Ceiling:14000 feet AGL
Clouds: broken clouds at 14000 feet AGL
Text:EKRN 241820Z AUTO 25013KT 9999 SCT140/// 04/03 Q1018
Temperature: 4.0°C ( 39°F)
Dewpoint: 3.0°C ( 37°F) [RH = 93%]
Pressure (altimeter):30.06 inches Hg (1018.0 mb)
Winds:from the WSW (250 degrees) at 15 MPH (13 knots; 6.7 m/s)
Visibility:6 or more sm (10+ km)
Ceiling:at least 12,000 feet AGL
Clouds: scattered clouds at 14000 feet AGL
Text:EKRN 241750Z AUTO 25015KT 9999 BKN180/// 04/03 Q1018
Temperature: 4.0°C ( 39°F)
Dewpoint: 3.0°C ( 37°F) [RH = 93%]
Pressure (altimeter):30.06 inches Hg (1018.0 mb)
Winds:from the WSW (250 degrees) at 17 MPH (15 knots; 7.7 m/s)
Visibility:6 or more sm (10+ km)
Ceiling:18000 feet AGL
Clouds: broken clouds at 18000 feet AGL
Text:EKRN 241720Z AUTO 25015KT 9999 BKN180/// 04/03 Q1019
Temperature: 4.0°C ( 39°F)
Dewpoint: 3.0°C ( 37°F) [RH = 93%]
Pressure (altimeter):30.09 inches Hg (1019.0 mb)
Winds:from the WSW (250 degrees) at 17 MPH (15 knots; 7.7 m/s)
Visibility:6 or more sm (10+ km)
Ceiling:18000 feet AGL
Clouds: broken clouds at 18000 feet AGL
Text:EKRN 241650Z AUTO 25013KT 9999 BKN180/// 05/03 Q1019
Temperature: 5.0°C ( 41°F)
Dewpoint: 3.0°C ( 37°F) [RH = 87%]
Pressure (altimeter):30.09 inches Hg (1019.0 mb)
Winds:from the WSW (250 degrees) at 15 MPH (13 knots; 6.7 m/s)
Visibility:6 or more sm (10+ km)
Ceiling:18000 feet AGL
Clouds: broken clouds at 18000 feet AGL
Text:EKRN 241620Z AUTO 25012KT 9999 BKN180/// 05/04 Q1020
Temperature: 5.0°C ( 41°F)
Dewpoint: 4.0°C ( 39°F) [RH = 93%]
Pressure (altimeter):30.12 inches Hg (1020.0 mb)
Winds:from the WSW (250 degrees) at 14 MPH (12 knots; 6.2 m/s)
Visibility:6 or more sm (10+ km)
Ceiling:18000 feet AGL
Clouds: broken clouds at 18000 feet AGL
Text:EKRN 241550Z AUTO 26010KT 9999 NCD 05/03 Q1020
Temperature: 5.0°C ( 41°F)
Dewpoint: 3.0°C ( 37°F) [RH = 87%]
Pressure (altimeter):30.12 inches Hg (1020.0 mb)
Winds:from the W (260 degrees) at 12 MPH (10 knots; 5.1 m/s)
Visibility:6 or more sm (10+ km)
Ceiling:at least 12,000 feet AGL
Clouds:sky clear below 12,000 feet AGL
Text:EKRN 241520Z AUTO 27011KT 9999 NCD 06/03 Q1020
Temperature: 6.0°C ( 43°F)
Dewpoint: 3.0°C ( 37°F) [RH = 81%]
Pressure (altimeter):30.12 inches Hg (1020.0 mb)
Winds:from the W (270 degrees) at 13 MPH (11 knots; 5.7 m/s)
Visibility:6 or more sm (10+ km)
Ceiling:at least 12,000 feet AGL
Clouds:sky clear below 12,000 feet AGL
Text:EKRN 241450Z AUTO 27010KT 9999 NCD 06/04 Q1021
Temperature: 6.0°C ( 43°F)
Dewpoint: 4.0°C ( 39°F) [RH = 87%]
Pressure (altimeter):30.15 inches Hg (1021.0 mb)
Winds:from the W (270 degrees) at 12 MPH (10 knots; 5.1 m/s)
Visibility:6 or more sm (10+ km)
Ceiling:at least 12,000 feet AGL
Clouds:sky clear below 12,000 feet AGL
Text:EKRN 241420Z AUTO 26009KT 9999 FEW006/// 06/04 Q1021
Temperature: 6.0°C ( 43°F)
Dewpoint: 4.0°C ( 39°F) [RH = 87%]
Pressure (altimeter):30.15 inches Hg (1021.0 mb)
Winds:from the W (260 degrees) at 10 MPH (9 knots; 4.6 m/s)
Visibility:6 or more sm (10+ km)
Ceiling:at least 12,000 feet AGL
Clouds: few clouds at 600 feet AGL
Text:EKRN 241350Z AUTO 27010KT 9999 FEW006/// 06/04 Q1022
Temperature: 6.0°C ( 43°F)
Dewpoint: 4.0°C ( 39°F) [RH = 87%]
Pressure (altimeter):30.18 inches Hg (1022.0 mb)
Winds:from the W (270 degrees) at 12 MPH (10 knots; 5.1 m/s)
Visibility:6 or more sm (10+ km)
Ceiling:at least 12,000 feet AGL
Clouds: few clouds at 600 feet AGL
Text:EKRN 241320Z AUTO 27008KT 9999 NCD 06/04 Q1022
Temperature: 6.0°C ( 43°F)
Dewpoint: 4.0°C ( 39°F) [RH = 87%]
Pressure (altimeter):30.18 inches Hg (1022.0 mb)
Winds:from the W (270 degrees) at 9 MPH (8 knots; 4.1 m/s)
Visibility:6 or more sm (10+ km)
Ceiling:at least 12,000 feet AGL
Clouds:sky clear below 12,000 feet AGL
Text:EKRN 241250Z AUTO 27010KT 9999 SCT006/// 06/04 Q1022
Temperature: 6.0°C ( 43°F)
Dewpoint: 4.0°C ( 39°F) [RH = 87%]
Pressure (altimeter):30.18 inches Hg (1022.0 mb)
Winds:from the W (270 degrees) at 12 MPH (10 knots; 5.1 m/s)
Visibility:6 or more sm (10+ km)
Ceiling:at least 12,000 feet AGL
Clouds: scattered clouds at 600 feet AGL
Text:EKRN 241220Z AUTO 28009KT 9999 BKN005/// BKN110/// 06/04 Q1023
Temperature: 6.0°C ( 43°F)
Dewpoint: 4.0°C ( 39°F) [RH = 87%]
Pressure (altimeter):30.21 inches Hg (1023.0 mb)
Winds:from the W (280 degrees) at 10 MPH (9 knots; 4.6 m/s)
Visibility:6 or more sm (10+ km)
Ceiling:500 feet AGL
Clouds: broken clouds at 500 feet AGL, broken clouds at 11000 feet AGL
Text:EKRN 241150Z AUTO 28008KT 9999 BKN006/// 05/04 Q1023
Temperature: 5.0°C ( 41°F)
Dewpoint: 4.0°C ( 39°F) [RH = 93%]
Pressure (altimeter):30.21 inches Hg (1023.0 mb)
Winds:from the W (280 degrees) at 9 MPH (8 knots; 4.1 m/s)
Visibility:6 or more sm (10+ km)
Ceiling:600 feet AGL
Clouds: broken clouds at 600 feet AGL
Text:EKRN 241120Z AUTO 28013KT 9999 BKN006/// 05/04 Q1024
Temperature: 5.0°C ( 41°F)
Dewpoint: 4.0°C ( 39°F) [RH = 93%]
Pressure (altimeter):30.24 inches Hg (1024.0 mb)
Winds:from the W (280 degrees) at 15 MPH (13 knots; 6.7 m/s)
Visibility:6 or more sm (10+ km)
Ceiling:600 feet AGL
Clouds: broken clouds at 600 feet AGL
Text:EKRN 241050Z AUTO 28013KT 9999 SCT005/// BKN120/// 05/04 Q1024
Temperature: 5.0°C ( 41°F)
Dewpoint: 4.0°C ( 39°F) [RH = 93%]
Pressure (altimeter):30.24 inches Hg (1024.0 mb)
Winds:from the W (280 degrees) at 15 MPH (13 knots; 6.7 m/s)
Visibility:6 or more sm (10+ km)
Ceiling:12000 feet AGL
Clouds: scattered clouds at 500 feet AGL, broken clouds at 12000 feet AGL
Text:EKRN 241020Z AUTO 28010KT 9999 BKN006/// 05/04 Q1024
Temperature: 5.0°C ( 41°F)
Dewpoint: 4.0°C ( 39°F) [RH = 93%]
Pressure (altimeter):30.24 inches Hg (1024.0 mb)
Winds:from the W (280 degrees) at 12 MPH (10 knots; 5.1 m/s)
Visibility:6 or more sm (10+ km)
Ceiling:600 feet AGL
Clouds: broken clouds at 600 feet AGL
Text:EKRN 240950Z AUTO 28009KT 9999 BKN006/// 05/03 Q1024
Temperature: 5.0°C ( 41°F)
Dewpoint: 3.0°C ( 37°F) [RH = 87%]
Pressure (altimeter):30.24 inches Hg (1024.0 mb)
Winds:from the W (280 degrees) at 10 MPH (9 knots; 4.6 m/s)
Visibility:6 or more sm (10+ km)
Ceiling:600 feet AGL
Clouds: broken clouds at 600 feet AGL
Text:EKRN 240920Z AUTO 28010KT 9999 FEW140/// 05/04 Q1025
Temperature: 5.0°C ( 41°F)
Dewpoint: 4.0°C ( 39°F) [RH = 93%]
Pressure (altimeter):30.27 inches Hg (1025.0 mb)
Winds:from the W (280 degrees) at 12 MPH (10 knots; 5.1 m/s)
Visibility:6 or more sm (10+ km)
Ceiling:at least 12,000 feet AGL
Clouds: few clouds at 14000 feet AGL
Text:EKRN 240850Z AUTO 28011KT 9999 SCT150/// 05/03 Q1025
Temperature: 5.0°C ( 41°F)
Dewpoint: 3.0°C ( 37°F) [RH = 87%]
Pressure (altimeter):30.27 inches Hg (1025.0 mb)
Winds:from the W (280 degrees) at 13 MPH (11 knots; 5.7 m/s)
Visibility:6 or more sm (10+ km)
Ceiling:at least 12,000 feet AGL
Clouds: scattered clouds at 15000 feet AGL
Text:EKRN 240820Z AUTO 28013KT 9999 SCT010/// BKN150/// 05/04 Q1025
Temperature: 5.0°C ( 41°F)
Dewpoint: 4.0°C ( 39°F) [RH = 93%]
Pressure (altimeter):30.27 inches Hg (1025.0 mb)
Winds:from the W (280 degrees) at 15 MPH (13 knots; 6.7 m/s)
Visibility:6 or more sm (10+ km)
Ceiling:15000 feet AGL
Clouds: scattered clouds at 1000 feet AGL, broken clouds at 15000 feet AGL
Text:EKRN 240750Z AUTO 28013KT 9999 FEW011/// FEW013/// BKN160/// 05/04 Q1025
Temperature: 5.0°C ( 41°F)
Dewpoint: 4.0°C ( 39°F) [RH = 93%]
Pressure (altimeter):30.27 inches Hg (1025.0 mb)
Winds:from the W (280 degrees) at 15 MPH (13 knots; 6.7 m/s)
Visibility:6 or more sm (10+ km)
Ceiling:16000 feet AGL
Clouds: few clouds at 1100 feet AGL, few clouds at 1300 feet AGL, broken clouds at 16000 feet AGL
Text:EKRN 240720Z AUTO 28012KT 9999 FEW012/// SCT014/// BKN160/// 05/04 Q1026
Temperature: 5.0°C ( 41°F)
Dewpoint: 4.0°C ( 39°F) [RH = 93%]
Pressure (altimeter):30.30 inches Hg (1026.0 mb)
Winds:from the W (280 degrees) at 14 MPH (12 knots; 6.2 m/s)
Visibility:6 or more sm (10+ km)
Ceiling:16000 feet AGL
Clouds: few clouds at 1200 feet AGL, scattered clouds at 1400 feet AGL, broken clouds at 16000 feet AGL
Text:EKRN 240650Z AUTO 28010KT 9999 BKN160/// 04/03 Q1026
Temperature: 4.0°C ( 39°F)
Dewpoint: 3.0°C ( 37°F) [RH = 93%]
Pressure (altimeter):30.30 inches Hg (1026.0 mb)
Winds:from the W (280 degrees) at 12 MPH (10 knots; 5.1 m/s)
Visibility:6 or more sm (10+ km)
Ceiling:16000 feet AGL
Clouds: broken clouds at 16000 feet AGL
Text:EKRN 240620Z AUTO 29010KT 9999 BKN160/// 04/03 Q1026
Temperature: 4.0°C ( 39°F)
Dewpoint: 3.0°C ( 37°F) [RH = 93%]
Pressure (altimeter):30.30 inches Hg (1026.0 mb)
Winds:from the WNW (290 degrees) at 12 MPH (10 knots; 5.1 m/s)
Visibility:6 or more sm (10+ km)
Ceiling:16000 feet AGL
Clouds: broken clouds at 16000 feet AGL
Text:EKRN 240550Z AUTO 29008KT 9999 BKN170/// 04/03 Q1026
Temperature: 4.0°C ( 39°F)
Dewpoint: 3.0°C ( 37°F) [RH = 93%]
Pressure (altimeter):30.30 inches Hg (1026.0 mb)
Winds:from the WNW (290 degrees) at 9 MPH (8 knots; 4.1 m/s)
Visibility:6 or more sm (10+ km)
Ceiling:17000 feet AGL
Clouds: broken clouds at 17000 feet AGL
Text:EKRN 240520Z AUTO 29008KT 9999 OVC170/// 04/03 Q1026
Temperature: 4.0°C ( 39°F)
Dewpoint: 3.0°C ( 37°F) [RH = 93%]
Pressure (altimeter):30.30 inches Hg (1026.0 mb)
Winds:from the WNW (290 degrees) at 9 MPH (8 knots; 4.1 m/s)
Visibility:6 or more sm (10+ km)
Ceiling:17000 feet AGL
Clouds: overcast cloud deck at 17000 feet AGL
Text:EKRN 240450Z AUTO 29009KT 9999 BKN170/// 04/03 Q1026
Temperature: 4.0°C ( 39°F)
Dewpoint: 3.0°C ( 37°F) [RH = 93%]
Pressure (altimeter):30.30 inches Hg (1026.0 mb)
Winds:from the WNW (290 degrees) at 10 MPH (9 knots; 4.6 m/s)
Visibility:6 or more sm (10+ km)
Ceiling:17000 feet AGL
Clouds: broken clouds at 17000 feet AGL
Text:EKRN 240420Z AUTO 29010KT 9999 BKN210/// 04/03 Q1026
Temperature: 4.0°C ( 39°F)
Dewpoint: 3.0°C ( 37°F) [RH = 93%]
Pressure (altimeter):30.30 inches Hg (1026.0 mb)
Winds:from the WNW (290 degrees) at 12 MPH (10 knots; 5.1 m/s)
Visibility:6 or more sm (10+ km)
Ceiling:21000 feet AGL
Clouds: broken clouds at 21000 feet AGL
Text:EKRN 240350Z AUTO 29011KT 9999 SCT180/// BKN200/// 04/03 Q1026
Temperature: 4.0°C ( 39°F)
Dewpoint: 3.0°C ( 37°F) [RH = 93%]
Pressure (altimeter):30.30 inches Hg (1026.0 mb)
Winds:from the WNW (290 degrees) at 13 MPH (11 knots; 5.7 m/s)
Visibility:6 or more sm (10+ km)
Ceiling:20000 feet AGL
Clouds: scattered clouds at 18000 feet AGL, broken clouds at 20000 feet AGL
Text:EKRN 240320Z AUTO 29010KT 9999 BKN180/// 04/02 Q1026
Temperature: 4.0°C ( 39°F)
Dewpoint: 2.0°C ( 36°F) [RH = 87%]
Pressure (altimeter):30.30 inches Hg (1026.0 mb)
Winds:from the WNW (290 degrees) at 12 MPH (10 knots; 5.1 m/s)
Visibility:6 or more sm (10+ km)
Ceiling:18000 feet AGL
Clouds: broken clouds at 18000 feet AGL
Text:EKRN 240250Z AUTO 29011KT 9999 BKN180/// 04/02 Q1026
Temperature: 4.0°C ( 39°F)
Dewpoint: 2.0°C ( 36°F) [RH = 87%]
Pressure (altimeter):30.30 inches Hg (1026.0 mb)
Winds:from the WNW (290 degrees) at 13 MPH (11 knots; 5.7 m/s)
Visibility:6 or more sm (10+ km)
Ceiling:18000 feet AGL
Clouds: broken clouds at 18000 feet AGL
Text:EKRN 240220Z AUTO 30010KT 9999 BKN180/// 04/02 Q1026
Temperature: 4.0°C ( 39°F)
Dewpoint: 2.0°C ( 36°F) [RH = 87%]
Pressure (altimeter):30.30 inches Hg (1026.0 mb)
Winds:from the WNW (300 degrees) at 12 MPH (10 knots; 5.1 m/s)
Visibility:6 or more sm (10+ km)
Ceiling:18000 feet AGL
Clouds: broken clouds at 18000 feet AGL
Text:EKRN 240150Z AUTO 29010KT 9999 FEW180/// BKN240/// 04/02 Q1026
Temperature: 4.0°C ( 39°F)
Dewpoint: 2.0°C ( 36°F) [RH = 87%]
Pressure (altimeter):30.30 inches Hg (1026.0 mb)
Winds:from the WNW (290 degrees) at 12 MPH (10 knots; 5.1 m/s)
Visibility:6 or more sm (10+ km)
Ceiling:24000 feet AGL
Clouds: few clouds at 18000 feet AGL, broken clouds at 24000 feet AGL
Text:EKRN 240120Z AUTO 29009KT 9999 BKN240/// 04/02 Q1026
Temperature: 4.0°C ( 39°F)
Dewpoint: 2.0°C ( 36°F) [RH = 87%]
Pressure (altimeter):30.30 inches Hg (1026.0 mb)
Winds:from the WNW (290 degrees) at 10 MPH (9 knots; 4.6 m/s)
Visibility:6 or more sm (10+ km)
Ceiling:24000 feet AGL
Clouds: broken clouds at 24000 feet AGL
Text:EKRN 240050Z AUTO 29010KT 9999 SCT190/// 04/02 Q1026
Temperature: 4.0°C ( 39°F)
Dewpoint: 2.0°C ( 36°F) [RH = 87%]
Pressure (altimeter):30.30 inches Hg (1026.0 mb)
Winds:from the WNW (290 degrees) at 12 MPH (10 knots; 5.1 m/s)
Visibility:6 or more sm (10+ km)
Ceiling:at least 12,000 feet AGL
Clouds: scattered clouds at 19000 feet AGL
Text:EKRN 240020Z AUTO 30011KT 9999 FEW190/// 05/01 Q1026
Temperature: 5.0°C ( 41°F)
Dewpoint: 1.0°C ( 34°F) [RH = 75%]
Pressure (altimeter):30.30 inches Hg (1026.0 mb)
Winds:from the WNW (300 degrees) at 13 MPH (11 knots; 5.7 m/s)
Visibility:6 or more sm (10+ km)
Ceiling:at least 12,000 feet AGL
Clouds: few clouds at 19000 feet AGL
Text:EKRN 232350Z AUTO 30011KT 9999 NCD 05/01 Q1026
Temperature: 5.0°C ( 41°F)
Dewpoint: 1.0°C ( 34°F) [RH = 75%]
Pressure (altimeter):30.30 inches Hg (1026.0 mb)
Winds:from the WNW (300 degrees) at 13 MPH (11 knots; 5.7 m/s)
Visibility:6 or more sm (10+ km)
Ceiling:at least 12,000 feet AGL
Clouds:sky clear below 12,000 feet AGL
Text:EKRN 232320Z AUTO 30010KT 9999 NCD 05/01 Q1026
Temperature: 5.0°C ( 41°F)
Dewpoint: 1.0°C ( 34°F) [RH = 75%]
Pressure (altimeter):30.30 inches Hg (1026.0 mb)
Winds:from the WNW (300 degrees) at 12 MPH (10 knots; 5.1 m/s)
Visibility:6 or more sm (10+ km)
Ceiling:at least 12,000 feet AGL
Clouds:sky clear below 12,000 feet AGL
Text:EKRN 232250Z AUTO 29010KT 9999 NCD 05/02 Q1026
Temperature: 5.0°C ( 41°F)
Dewpoint: 2.0°C ( 36°F) [RH = 81%]
Pressure (altimeter):30.30 inches Hg (1026.0 mb)
Winds:from the WNW (290 degrees) at 12 MPH (10 knots; 5.1 m/s)
Visibility:6 or more sm (10+ km)
Ceiling:at least 12,000 feet AGL
Clouds:sky clear below 12,000 feet AGL
Text:EKRN 232220Z AUTO 30010KT 9999 NCD 05/02 Q1026
Temperature: 5.0°C ( 41°F)
Dewpoint: 2.0°C ( 36°F) [RH = 81%]
Pressure (altimeter):30.30 inches Hg (1026.0 mb)
Winds:from the WNW (300 degrees) at 12 MPH (10 knots; 5.1 m/s)
Visibility:6 or more sm (10+ km)
Ceiling:at least 12,000 feet AGL
Clouds:sky clear below 12,000 feet AGL
Text:EKRN 232150Z AUTO 30008KT 9999 NCD 05/02 Q1026
Temperature: 5.0°C ( 41°F)
Dewpoint: 2.0°C ( 36°F) [RH = 81%]
Pressure (altimeter):30.30 inches Hg (1026.0 mb)
Winds:from the WNW (300 degrees) at 9 MPH (8 knots; 4.1 m/s)
Visibility:6 or more sm (10+ km)
Ceiling:at least 12,000 feet AGL
Clouds:sky clear below 12,000 feet AGL
Text:EKRN 232120Z AUTO 30008KT 9999 NCD 05/02 Q1026
Temperature: 5.0°C ( 41°F)
Dewpoint: 2.0°C ( 36°F) [RH = 81%]
Pressure (altimeter):30.30 inches Hg (1026.0 mb)
Winds:from the WNW (300 degrees) at 9 MPH (8 knots; 4.1 m/s)
Visibility:6 or more sm (10+ km)
Ceiling:at least 12,000 feet AGL
Clouds:sky clear below 12,000 feet AGL
Text:EKRN 232050Z AUTO 30010KT 9999 FEW190/// 06/03 Q1026
Temperature: 6.0°C ( 43°F)
Dewpoint: 3.0°C ( 37°F) [RH = 81%]
Pressure (altimeter):30.30 inches Hg (1026.0 mb)
Winds:from the WNW (300 degrees) at 12 MPH (10 knots; 5.1 m/s)
Visibility:6 or more sm (10+ km)
Ceiling:at least 12,000 feet AGL
Clouds: few clouds at 19000 feet AGL
Text:EKRN 232020Z AUTO 31012KT 9999 BKN190/// 06/01 Q1026
Temperature: 6.0°C ( 43°F)
Dewpoint: 1.0°C ( 34°F) [RH = 70%]
Pressure (altimeter):30.30 inches Hg (1026.0 mb)
Winds:from the NW (310 degrees) at 14 MPH (12 knots; 6.2 m/s)
Visibility:6 or more sm (10+ km)
Ceiling:19000 feet AGL
Clouds: broken clouds at 19000 feet AGL
Text:EKRN 231950Z AUTO 30010KT 9999 BKN190/// 06/03 Q1026
Temperature: 6.0°C ( 43°F)
Dewpoint: 3.0°C ( 37°F) [RH = 81%]
Pressure (altimeter):30.30 inches Hg (1026.0 mb)
Winds:from the WNW (300 degrees) at 12 MPH (10 knots; 5.1 m/s)
Visibility:6 or more sm (10+ km)
Ceiling:19000 feet AGL
Clouds: broken clouds at 19000 feet AGL
Text:EKRN 231920Z AUTO 30012KT 9999 BKN190/// 06/03 Q1026
Temperature: 6.0°C ( 43°F)
Dewpoint: 3.0°C ( 37°F) [RH = 81%]
Pressure (altimeter):30.30 inches Hg (1026.0 mb)
Winds:from the WNW (300 degrees) at 14 MPH (12 knots; 6.2 m/s)
Visibility:6 or more sm (10+ km)
Ceiling:19000 feet AGL
Clouds: broken clouds at 19000 feet AGL
Text:EKRN 231850Z AUTO 29011KT 9999 BKN190/// 06/04 Q1026
Temperature: 6.0°C ( 43°F)
Dewpoint: 4.0°C ( 39°F) [RH = 87%]
Pressure (altimeter):30.30 inches Hg (1026.0 mb)
Winds:from the WNW (290 degrees) at 13 MPH (11 knots; 5.7 m/s)
Visibility:6 or more sm (10+ km)
Ceiling:19000 feet AGL
Clouds: broken clouds at 19000 feet AGL
Text:EKRN 231820Z AUTO 30010KT 9999 BKN180/// 06/04 Q1025
Temperature: 6.0°C ( 43°F)
Dewpoint: 4.0°C ( 39°F) [RH = 87%]
Pressure (altimeter):30.27 inches Hg (1025.0 mb)
Winds:from the WNW (300 degrees) at 12 MPH (10 knots; 5.1 m/s)
Visibility:6 or more sm (10+ km)
Ceiling:18000 feet AGL
Clouds: broken clouds at 18000 feet AGL
Text:EKRN 231750Z AUTO 29011KT 9999 SCT150/// BKN200/// 05/04 Q1025
Temperature: 5.0°C ( 41°F)
Dewpoint: 4.0°C ( 39°F) [RH = 93%]
Pressure (altimeter):30.27 inches Hg (1025.0 mb)
Winds:from the WNW (290 degrees) at 13 MPH (11 knots; 5.7 m/s)
Visibility:6 or more sm (10+ km)
Ceiling:20000 feet AGL
Clouds: scattered clouds at 15000 feet AGL, broken clouds at 20000 feet AGL
Text:EKRN 231720Z AUTO 29009KT 9999 BKN140/// 06/04 Q1025
Temperature: 6.0°C ( 43°F)
Dewpoint: 4.0°C ( 39°F) [RH = 87%]
Pressure (altimeter):30.27 inches Hg (1025.0 mb)
Winds:from the WNW (290 degrees) at 10 MPH (9 knots; 4.6 m/s)
Visibility:6 or more sm (10+ km)
Ceiling:14000 feet AGL
Clouds: broken clouds at 14000 feet AGL
Text:EKRN 231650Z AUTO 30011KT 9999 FEW150/// BKN190/// 06/04 Q1025
Temperature: 6.0°C ( 43°F)
Dewpoint: 4.0°C ( 39°F) [RH = 87%]
Pressure (altimeter):30.27 inches Hg (1025.0 mb)
Winds:from the WNW (300 degrees) at 13 MPH (11 knots; 5.7 m/s)
Visibility:6 or more sm (10+ km)
Ceiling:19000 feet AGL
Clouds: few clouds at 15000 feet AGL, broken clouds at 19000 feet AGL
Text:EKRN 231620Z AUTO 29011KT 8000 SCT180/// 06/04 Q1025
Temperature: 6.0°C ( 43°F)
Dewpoint: 4.0°C ( 39°F) [RH = 87%]
Pressure (altimeter):30.27 inches Hg (1025.0 mb)
Winds:from the WNW (290 degrees) at 13 MPH (11 knots; 5.7 m/s)
Visibility: 5 sm ( 8 km)
Ceiling:at least 12,000 feet AGL
Clouds: scattered clouds at 18000 feet AGL
Text:EKRN 231550Z AUTO 29011KT 6000 FEW130/// 06/05 Q1024
Temperature: 6.0°C ( 43°F)
Dewpoint: 5.0°C ( 41°F) [RH = 93%]
Pressure (altimeter):30.24 inches Hg (1024.0 mb)
Winds:from the WNW (290 degrees) at 13 MPH (11 knots; 5.7 m/s)
Visibility: 4 sm ( 6 km)
Ceiling:at least 12,000 feet AGL
Clouds: few clouds at 13000 feet AGL
Text:EKRN 231520Z AUTO 28009KT 5000 BKN130/// 07/05 Q1024
Temperature: 7.0°C ( 45°F)
Dewpoint: 5.0°C ( 41°F) [RH = 87%]
Pressure (altimeter):30.24 inches Hg (1024.0 mb)
Winds:from the W (280 degrees) at 10 MPH (9 knots; 4.6 m/s)
Visibility: 3 sm ( 5 km)
Ceiling:13000 feet AGL
Clouds: broken clouds at 13000 feet AGL
Text:EKRN 231450Z AUTO 28011KT 4800 BR BKN140/// 06/05 Q1024
Temperature: 6.0°C ( 43°F)
Dewpoint: 5.0°C ( 41°F) [RH = 93%]
Pressure (altimeter):30.24 inches Hg (1024.0 mb)
Winds:from the W (280 degrees) at 13 MPH (11 knots; 5.7 m/s)
Visibility: 2.98 sm ( 4.80 km)
Ceiling:14000 feet AGL
Clouds: broken clouds at 14000 feet AGL
Weather:BR (mist)
Text:EKRN 231420Z AUTO 28011KT 5000 BKN140/// BKN200/// 07/05 Q1024
Temperature: 7.0°C ( 45°F)
Dewpoint: 5.0°C ( 41°F) [RH = 87%]
Pressure (altimeter):30.24 inches Hg (1024.0 mb)
Winds:from the W (280 degrees) at 13 MPH (11 knots; 5.7 m/s)
Visibility: 3 sm ( 5 km)
Ceiling:14000 feet AGL
Clouds: broken clouds at 14000 feet AGL, broken clouds at 20000 feet AGL
Text:EKRN 231350Z AUTO 28010KT 4300 BR BKN003/// BKN130/// 06/05 Q1024
Temperature: 6.0°C ( 43°F)
Dewpoint: 5.0°C ( 41°F) [RH = 93%]
Pressure (altimeter):30.24 inches Hg (1024.0 mb)
Winds:from the W (280 degrees) at 12 MPH (10 knots; 5.1 m/s)
Visibility: 2.67 sm ( 4.30 km)
Ceiling:300 feet AGL
Clouds: broken clouds at 300 feet AGL, broken clouds at 13000 feet AGL
Weather:BR (mist)
Text:EKRN 231320Z AUTO 28007KT 4000 BR BKN004/// BKN130/// 06/05 Q1024
Temperature: 6.0°C ( 43°F)
Dewpoint: 5.0°C ( 41°F) [RH = 93%]
Pressure (altimeter):30.24 inches Hg (1024.0 mb)
Winds:from the W (280 degrees) at 8 MPH (7 knots; 3.6 m/s)
Visibility: 2.49 sm ( 4.01 km)
Ceiling:400 feet AGL
Clouds: broken clouds at 400 feet AGL, broken clouds at 13000 feet AGL
Weather:BR (mist)

TAF for:EKRN (Ronne/Bornholm Arpt, --, DN) issued at 1725 UTC 24 Mar 2019
Text:TAF EKRN 241725Z 2418/2423 25015KT 9999 SCT020
Forecast period:1800 to 2300 UTC 24 March 2019
Forecast type:FROM: standard forecast or significant change
Winds:from the WSW (250 degrees) at 17 MPH (15 knots; 7.7 m/s)
Visibility:6 or more sm (10+ km)
Ceiling:at least 12,000 feet AGL
Clouds: scattered clouds at 2000 feet AGL